createdAt,value
2023-05-04T00:00:45.399Z,6.12
2023-05-04T00:01:45.419Z,6.11
2023-05-04T00:02:45.474Z,6.08
2023-05-04T00:03:45.748Z,6.07
2023-05-04T00:04:45.357Z,6.08
2023-05-04T00:05:48.329Z,6.07
2023-05-04T00:06:48.342Z,6.05
2023-05-04T00:07:45.331Z,6.04
2023-05-04T00:08:45.320Z,6.02
2023-05-04T00:09:45.293Z,6.01
2023-05-04T00:10:45.264Z,5.99
2023-05-04T00:11:45.258Z,5.99
2023-05-04T00:12:45.364Z,5.99
2023-05-04T00:13:45.215Z,5.97
2023-05-04T00:14:45.198Z,5.97
2023-05-04T00:15:45.218Z,5.94
2023-05-04T00:16:45.223Z,5.97
2023-05-04T00:17:45.183Z,5.97
2023-05-04T00:18:45.185Z,5.97
2023-05-04T00:19:45.147Z,5.97
2023-05-04T00:20:45.126Z,5.98
2023-05-04T00:21:45.104Z,5.97
2023-05-04T00:22:45.134Z,5.94
2023-05-04T00:23:45.086Z,5.97
2023-05-04T00:24:45.078Z,5.97
2023-05-04T00:25:48.049Z,5.94
2023-05-04T00:26:48.041Z,5.97
2023-05-04T00:27:45.014Z,5.97
2023-05-04T00:28:45.062Z,5.93
2023-05-04T00:29:44.991Z,5.98
2023-05-04T00:30:44.980Z,5.94
2023-05-04T00:31:45.008Z,5.94
2023-05-04T00:32:45.017Z,5.97
2023-05-04T00:33:44.962Z,5.98
2023-05-04T00:34:44.926Z,5.97
2023-05-04T00:35:44.908Z,5.97
2023-05-04T00:36:44.939Z,5.97
2023-05-04T00:37:44.875Z,5.98
2023-05-04T00:38:44.883Z,5.98
2023-05-04T00:39:44.858Z,5.97
2023-05-04T00:40:44.833Z,5.98
2023-05-04T00:41:44.846Z,5.97
2023-05-04T00:42:44.860Z,5.94
2023-05-04T00:43:44.811Z,5.93
2023-05-04T00:44:44.786Z,5.93
2023-05-04T00:45:47.764Z,5.90
2023-05-04T00:46:47.834Z,5.90
2023-05-04T00:47:44.859Z,5.86
2023-05-04T00:48:44.740Z,5.87
2023-05-04T00:49:44.717Z,5.86
2023-05-04T00:50:44.697Z,5.86
2023-05-04T00:51:44.679Z,5.86
2023-05-04T00:52:44.687Z,5.84
2023-05-04T00:53:44.674Z,5.84
2023-05-04T00:54:44.641Z,5.84
2023-05-04T00:55:44.633Z,5.83
2023-05-04T00:56:44.610Z,5.83
2023-05-04T00:57:44.665Z,5.83
2023-05-04T00:58:44.587Z,5.86
2023-05-04T00:59:44.571Z,5.86
2023-05-04T01:00:44.566Z,5.87
2023-05-04T01:01:44.545Z,5.89
2023-05-04T01:02:44.618Z,5.90
2023-05-04T01:03:44.582Z,5.90
2023-05-04T01:04:44.505Z,5.86
2023-05-04T01:05:47.508Z,5.83
2023-05-04T01:06:47.490Z,5.83
2023-05-04T01:07:44.497Z,5.82
2023-05-04T01:08:44.440Z,5.80
2023-05-04T01:09:44.433Z,5.80
2023-05-04T01:10:44.466Z,5.79
2023-05-04T01:11:44.401Z,5.80
2023-05-04T01:12:44.451Z,5.80
2023-05-04T01:13:44.371Z,5.79
2023-05-04T01:14:44.357Z,5.76
2023-05-04T01:15:44.361Z,5.76
2023-05-04T01:16:44.365Z,5.75
2023-05-04T01:17:44.393Z,5.75
2023-05-04T01:18:44.303Z,5.73
2023-05-04T01:19:44.287Z,5.73
2023-05-04T01:20:44.318Z,5.72
2023-05-04T01:21:44.254Z,5.69
2023-05-04T01:22:44.287Z,5.66
2023-05-04T01:23:44.240Z,5.65
2023-05-04T01:24:44.217Z,5.66
2023-05-04T01:25:47.216Z,5.62
2023-05-04T01:26:47.216Z,5.62
2023-05-04T01:27:44.212Z,5.61
2023-05-04T01:28:44.166Z,5.61
2023-05-04T01:29:44.150Z,5.59
2023-05-04T01:30:44.155Z,5.59
2023-05-04T01:31:44.122Z,5.57
2023-05-04T01:32:44.210Z,5.59
2023-05-04T01:33:44.107Z,5.56
2023-05-04T01:34:44.078Z,5.56
2023-05-04T01:35:44.064Z,5.57
2023-05-04T01:36:44.048Z,5.61
2023-05-04T01:37:44.036Z,5.62
2023-05-04T01:38:44.051Z,5.64
2023-05-04T01:39:44.016Z,5.64
2023-05-04T01:40:44.006Z,5.61
2023-05-04T01:41:43.968Z,5.62
2023-05-04T01:42:43.980Z,5.62
2023-05-04T01:43:44.001Z,5.64
2023-05-04T01:44:43.934Z,5.62
2023-05-04T01:45:46.933Z,5.64
2023-05-04T01:46:46.911Z,5.65
2023-05-04T01:47:43.956Z,5.64
2023-05-04T01:48:43.933Z,5.62
2023-05-04T01:49:43.872Z,5.61
2023-05-04T01:50:43.853Z,5.59
2023-05-04T01:51:43.839Z,5.59
2023-05-04T01:52:43.810Z,5.57
2023-05-04T01:53:43.831Z,5.56
2023-05-04T01:54:43.804Z,5.57
2023-05-04T01:55:43.776Z,5.56
2023-05-04T01:56:43.756Z,5.57
2023-05-04T01:57:43.763Z,5.56
2023-05-04T01:58:43.748Z,5.56
2023-05-04T01:59:43.743Z,5.54
2023-05-04T02:00:43.703Z,5.54
2023-05-04T02:01:43.741Z,5.51
2023-05-04T02:02:43.784Z,5.50
2023-05-04T02:03:43.793Z,5.50
2023-05-04T02:04:43.675Z,5.47
2023-05-04T02:05:46.642Z,5.48
2023-05-04T02:06:46.617Z,5.48
2023-05-04T02:07:43.604Z,5.47
2023-05-04T02:08:43.589Z,5.47
2023-05-04T02:09:43.595Z,5.46
2023-05-04T02:10:43.575Z,5.46
2023-05-04T02:11:43.549Z,5.47
2023-05-04T02:12:43.554Z,5.47
2023-05-04T02:13:43.520Z,5.46
2023-05-04T02:14:43.555Z,5.44
2023-05-04T02:15:43.553Z,5.44
2023-05-04T02:16:43.477Z,5.41
2023-05-04T02:17:43.524Z,5.39
2023-05-04T02:18:43.444Z,5.39
2023-05-04T02:19:43.483Z,5.38
2023-05-04T02:20:43.417Z,5.39
2023-05-04T02:21:43.412Z,5.38
2023-05-04T02:22:43.390Z,5.38
2023-05-04T02:23:43.374Z,5.36
2023-05-04T02:24:43.427Z,5.38
2023-05-04T02:25:46.350Z,5.36
2023-05-04T02:26:46.337Z,5.38
2023-05-04T02:27:43.322Z,5.33
2023-05-04T02:28:43.306Z,5.36
2023-05-04T02:29:43.312Z,5.36
2023-05-04T02:30:43.306Z,5.33
2023-05-04T02:31:43.365Z,5.33
2023-05-04T02:32:43.289Z,5.32
2023-05-04T02:33:43.230Z,5.32
2023-05-04T02:34:43.215Z,5.33
2023-05-04T02:35:43.232Z,5.35
2023-05-04T02:36:43.187Z,5.33
2023-05-04T02:37:43.186Z,5.35
2023-05-04T02:38:43.183Z,5.33
2023-05-04T02:39:43.176Z,5.33
2023-05-04T02:40:43.157Z,5.30
2023-05-04T02:41:43.116Z,5.32
2023-05-04T02:42:43.115Z,5.33
2023-05-04T02:43:43.097Z,5.33
2023-05-04T02:44:43.083Z,5.36
2023-05-04T02:45:46.136Z,5.36
2023-05-04T02:46:46.053Z,5.35
2023-05-04T02:47:43.093Z,5.32
2023-05-04T02:48:43.023Z,5.32
2023-05-04T02:49:43.008Z,5.30
2023-05-04T02:50:42.992Z,5.29
2023-05-04T02:51:43.018Z,5.33
2023-05-04T02:52:43.020Z,5.30
2023-05-04T02:53:42.957Z,5.28
2023-05-04T02:54:42.947Z,5.28
2023-05-04T02:55:42.930Z,5.29
2023-05-04T02:56:42.903Z,5.30
2023-05-04T02:57:42.984Z,5.32
2023-05-04T02:58:42.879Z,5.32
2023-05-04T02:59:42.863Z,5.30
2023-05-04T03:00:42.857Z,5.28
2023-05-04T03:01:42.891Z,5.28
2023-05-04T03:02:42.900Z,5.25
2023-05-04T03:03:42.845Z,5.23
2023-05-04T03:04:42.896Z,5.21
2023-05-04T03:05:45.784Z,5.21
2023-05-04T03:06:45.781Z,5.20
2023-05-04T03:07:42.774Z,5.18
2023-05-04T03:08:42.778Z,5.20
2023-05-04T03:09:44.172Z,5.17
2023-05-04T03:10:42.708Z,5.17
2023-05-04T03:11:42.710Z,5.15
2023-05-04T03:12:42.728Z,5.15
2023-05-04T03:13:42.710Z,5.17
2023-05-04T03:14:42.650Z,5.15
2023-05-04T03:15:42.677Z,5.17
2023-05-04T03:16:42.668Z,5.14
2023-05-04T03:17:42.667Z,5.15
2023-05-04T03:19:03.624Z,5.17
2023-05-04T03:19:42.587Z,5.17
2023-05-04T03:20:42.619Z,5.17
2023-05-04T03:21:42.568Z,5.17
2023-05-04T03:22:42.548Z,5.15
2023-05-04T03:23:42.528Z,5.15
2023-05-04T03:24:42.524Z,5.14
2023-05-04T03:25:45.555Z,5.17
2023-05-04T03:26:45.501Z,5.18
2023-05-04T03:27:42.477Z,5.18
2023-05-04T03:28:42.492Z,5.17
2023-05-04T03:29:42.453Z,5.17
2023-05-04T03:30:42.465Z,5.15
2023-05-04T03:31:42.457Z,5.14
2023-05-04T03:32:42.491Z,5.14
2023-05-04T03:33:42.411Z,5.15
2023-05-04T03:34:42.390Z,5.17
2023-05-04T03:35:42.364Z,5.18
2023-05-04T03:36:42.359Z,5.15
2023-05-04T03:37:42.343Z,5.15
2023-05-04T03:38:42.409Z,5.15
2023-05-04T03:39:42.312Z,5.12
2023-05-04T03:40:42.313Z,5.14
2023-05-04T03:41:42.285Z,5.14
2023-05-04T03:42:42.286Z,5.15
2023-05-04T03:43:42.262Z,5.17
2023-05-04T03:44:42.294Z,5.18
2023-05-04T03:45:45.274Z,5.17
2023-05-04T03:46:45.228Z,5.18
2023-05-04T03:47:42.240Z,5.20
2023-05-04T03:48:42.196Z,5.17
2023-05-04T03:49:42.194Z,5.18
2023-05-04T03:50:42.170Z,5.20
2023-05-04T03:51:42.160Z,5.21
2023-05-04T03:52:42.153Z,5.17
2023-05-04T03:53:44.135Z,5.15
2023-05-04T03:54:42.167Z,5.17
2023-05-04T03:55:42.100Z,5.17
2023-05-04T03:56:42.087Z,5.17
2023-05-04T03:57:42.078Z,5.20
2023-05-04T03:58:42.080Z,5.20
2023-05-04T03:59:42.096Z,5.20
2023-05-04T04:00:42.033Z,5.21
2023-05-04T04:01:42.024Z,5.21
2023-05-04T04:02:42.302Z,5.20
2023-05-04T04:03:42.071Z,5.25
2023-05-04T04:04:42.085Z,5.25
2023-05-04T04:05:44.990Z,5.28
2023-05-04T04:06:44.967Z,5.29
2023-05-04T04:07:41.941Z,5.28
2023-05-04T04:08:41.952Z,5.26
2023-05-04T04:09:41.936Z,5.30
2023-05-04T04:10:41.897Z,5.32
2023-05-04T04:11:41.879Z,5.33
2023-05-04T04:12:41.928Z,5.33
2023-05-04T04:13:41.859Z,5.39
2023-05-04T04:14:41.862Z,5.41
2023-05-04T04:15:42.743Z,5.41
2023-05-04T04:16:41.948Z,5.39
2023-05-04T04:17:41.835Z,5.39
2023-05-04T04:18:41.791Z,5.39
2023-05-04T04:19:41.792Z,5.41
2023-05-04T04:20:41.767Z,5.41
2023-05-04T04:21:41.733Z,5.41
2023-05-04T04:22:41.743Z,5.44
2023-05-04T04:23:41.703Z,5.46
2023-05-04T04:24:41.731Z,5.48
2023-05-04T04:25:44.681Z,5.50
2023-05-04T04:26:44.705Z,5.51
2023-05-04T04:27:41.747Z,5.50
2023-05-04T04:28:41.672Z,5.56
2023-05-04T04:29:41.642Z,5.61
2023-05-04T04:30:41.623Z,5.64
2023-05-04T04:31:41.649Z,5.75
2023-05-04T04:32:41.661Z,5.99
2023-05-04T04:33:41.574Z,6.31
2023-05-04T04:34:41.612Z,6.57
2023-05-04T04:35:41.545Z,6.82
2023-05-04T04:36:41.540Z,7.00
2023-05-04T04:37:41.512Z,7.07
2023-05-04T04:38:41.497Z,6.92
2023-05-04T04:39:41.552Z,6.79
2023-05-04T04:40:41.505Z,6.64
2023-05-04T04:41:41.454Z,6.60
2023-05-04T04:42:41.450Z,6.59
2023-05-04T04:43:41.424Z,6.49
2023-05-04T04:44:41.441Z,6.44
2023-05-04T04:45:44.398Z,6.31
2023-05-04T04:46:44.472Z,6.27
2023-05-04T04:47:41.401Z,6.26
2023-05-04T04:48:41.359Z,6.22
2023-05-04T04:49:41.370Z,6.30
2023-05-04T04:50:41.344Z,6.33
2023-05-04T04:51:41.336Z,6.36
2023-05-04T04:52:41.318Z,6.33
2023-05-04T04:53:41.285Z,6.35
2023-05-04T04:54:41.331Z,6.38
2023-05-04T04:55:41.261Z,6.45
2023-05-04T04:56:41.285Z,6.48
2023-05-04T04:57:41.255Z,6.45
2023-05-04T04:58:41.222Z,6.56
2023-05-04T04:59:41.202Z,6.75
2023-05-04T05:00:41.261Z,6.87
2023-05-04T05:01:41.192Z,6.82
2023-05-04T05:02:41.298Z,6.95
2023-05-04T05:03:41.165Z,7.17
2023-05-04T05:04:41.259Z,7.38
2023-05-04T05:05:44.135Z,7.50
2023-05-04T05:06:44.121Z,7.67
2023-05-04T05:07:41.110Z,7.70
2023-05-04T05:08:41.093Z,8.03
2023-05-04T05:09:41.095Z,8.23
2023-05-04T05:10:43.193Z,8.36
2023-05-04T05:11:41.070Z,8.42
2023-05-04T05:12:41.052Z,8.64
2023-05-04T05:13:41.044Z,8.63
2023-05-04T05:14:41.025Z,8.97
2023-05-04T05:15:41.009Z,9.13
2023-05-04T05:16:41.055Z,9.23
2023-05-04T05:17:41.003Z,9.37
2023-05-04T05:18:40.958Z,9.31
2023-05-04T05:19:42.298Z,9.31
2023-05-04T05:20:40.925Z,9.26
2023-05-04T05:21:40.931Z,9.11
2023-05-04T05:22:40.905Z,9.08
2023-05-04T05:23:40.887Z,8.91
2023-05-04T05:24:40.887Z,8.74
2023-05-04T05:25:43.882Z,8.84
2023-05-04T05:26:43.836Z,8.99
2023-05-04T05:27:40.862Z,9.16
2023-05-04T05:28:40.820Z,9.28
2023-05-04T05:29:40.797Z,9.39
2023-05-04T05:30:40.822Z,9.43
2023-05-04T05:31:40.769Z,9.26
2023-05-04T05:32:40.841Z,9.08
2023-05-04T05:33:40.825Z,8.94
2023-05-04T05:34:40.733Z,8.92
2023-05-04T05:35:40.729Z,8.99
2023-05-04T05:36:40.705Z,9.08
2023-05-04T05:37:40.683Z,9.02
2023-05-04T05:38:40.679Z,9.19
2023-05-04T05:39:40.682Z,9.37
2023-05-04T05:40:40.642Z,9.32
2023-05-04T05:41:40.642Z,9.37
2023-05-04T05:42:40.614Z,9.32
2023-05-04T05:43:40.630Z,9.34
2023-05-04T05:44:40.613Z,9.36
2023-05-04T05:45:43.595Z,9.25
2023-05-04T05:46:43.603Z,9.23
2023-05-04T05:47:40.595Z,9.18
2023-05-04T05:48:40.539Z,9.16
2023-05-04T05:49:40.535Z,9.26
2023-05-04T05:50:40.553Z,9.37
2023-05-04T05:51:40.490Z,9.39
2023-05-04T05:52:40.473Z,9.46
2023-05-04T05:53:40.468Z,9.51
2023-05-04T05:54:40.458Z,9.72
2023-05-04T05:55:40.442Z,9.79
2023-05-04T05:56:40.464Z,9.65
2023-05-04T05:57:40.409Z,9.65
2023-05-04T05:58:40.423Z,9.62
2023-05-04T05:59:40.396Z,9.74
2023-05-04T06:00:40.361Z,9.72
2023-05-04T06:01:40.347Z,9.43
2023-05-04T06:02:40.499Z,9.26
2023-05-04T06:03:40.450Z,9.36
2023-05-04T06:04:40.385Z,9.40
2023-05-04T06:05:43.298Z,9.43
2023-05-04T06:06:45.818Z,9.41
2023-05-04T06:07:40.269Z,9.51
2023-05-04T06:08:40.268Z,9.59
2023-05-04T06:09:40.256Z,9.47
2023-05-04T06:10:40.235Z,9.43
2023-05-04T06:11:40.224Z,9.37
2023-05-04T06:12:40.217Z,9.32
2023-05-04T06:13:40.259Z,9.31
2023-05-04T06:14:40.171Z,9.13
2023-05-04T06:15:40.160Z,9.04
2023-05-04T06:16:40.327Z,9.02
2023-05-04T06:17:40.166Z,9.06
2023-05-04T06:18:40.115Z,9.04
2023-05-04T06:19:40.154Z,9.04
2023-05-04T06:20:40.101Z,9.11
2023-05-04T06:21:40.076Z,9.22
2023-05-04T06:22:40.074Z,9.28
2023-05-04T06:23:40.076Z,9.37
2023-05-04T06:24:40.036Z,9.54
2023-05-04T06:25:43.064Z,9.56
2023-05-04T06:26:43.001Z,9.59
2023-05-04T06:27:40.003Z,9.73
2023-05-04T06:28:39.991Z,9.69
2023-05-04T06:29:39.964Z,9.74
2023-05-04T06:30:39.978Z,9.82
2023-05-04T06:31:40.049Z,9.89
2023-05-04T06:32:39.990Z,9.95
2023-05-04T06:33:39.917Z,9.95
2023-05-04T06:34:39.918Z,10.05
2023-05-04T06:35:39.948Z,10.13
2023-05-04T06:36:39.869Z,10.22
2023-05-04T06:37:39.878Z,10.22
2023-05-04T06:38:39.863Z,10.13
2023-05-04T06:39:39.846Z,10.17
2023-05-04T06:40:39.858Z,10.02
2023-05-04T06:41:39.847Z,10.01
2023-05-04T06:42:39.811Z,10.01
2023-05-04T06:43:39.815Z,9.98
2023-05-04T06:44:39.775Z,9.98
2023-05-04T06:45:42.792Z,9.94
2023-05-04T06:46:42.750Z,9.97
2023-05-04T06:47:39.829Z,10.04
2023-05-04T06:48:39.717Z,10.04
2023-05-04T06:49:39.731Z,10.07
2023-05-04T06:50:39.714Z,10.15
2023-05-04T06:51:39.747Z,10.25
2023-05-04T06:52:39.659Z,10.37
2023-05-04T06:53:39.670Z,10.51
2023-05-04T06:54:39.639Z,10.49
2023-05-04T06:55:39.630Z,10.48
2023-05-04T06:56:39.685Z,10.49
2023-05-04T06:57:39.634Z,10.46
2023-05-04T06:58:39.639Z,10.48
2023-05-04T06:59:39.578Z,10.53
2023-05-04T07:00:39.593Z,10.63
2023-05-04T07:01:39.611Z,10.72
2023-05-04T07:02:39.558Z,10.84
2023-05-04T07:03:39.566Z,10.89
2023-05-04T07:04:39.502Z,10.92
2023-05-04T07:05:42.526Z,10.96
2023-05-04T07:06:42.481Z,10.96
2023-05-04T07:07:39.503Z,10.94
2023-05-04T07:08:39.455Z,10.94
2023-05-04T07:09:39.510Z,10.96
2023-05-04T07:10:39.448Z,11.05
2023-05-04T07:11:39.427Z,11.22
2023-05-04T07:12:39.467Z,11.25
2023-05-04T07:13:39.389Z,11.36
2023-05-04T07:14:39.382Z,11.48
2023-05-04T07:15:39.376Z,11.63
2023-05-04T07:16:39.464Z,11.68
2023-05-04T07:17:39.336Z,11.72
2023-05-04T07:18:39.317Z,11.75
2023-05-04T07:19:39.310Z,11.75
2023-05-04T07:20:39.292Z,11.66
2023-05-04T07:21:39.340Z,11.60
2023-05-04T07:22:39.265Z,11.50
2023-05-04T07:23:39.249Z,11.50
2023-05-04T07:24:39.229Z,11.48
2023-05-04T07:25:42.219Z,11.52
2023-05-04T07:26:42.266Z,11.62
2023-05-04T07:27:39.225Z,11.62
2023-05-04T07:28:39.163Z,11.68
2023-05-04T07:29:39.157Z,11.65
2023-05-04T07:30:39.143Z,11.70
2023-05-04T07:31:39.190Z,11.81
2023-05-04T07:32:39.134Z,11.90
2023-05-04T07:33:39.098Z,11.86
2023-05-04T07:34:45.601Z,11.84
2023-05-04T07:35:40.067Z,11.77
2023-05-04T07:36:39.882Z,11.69
2023-05-04T07:37:39.045Z,11.81
2023-05-04T07:38:39.088Z,11.95
2023-05-04T07:39:39.012Z,12.02
2023-05-04T07:40:39.081Z,12.04
2023-05-04T07:41:39.000Z,12.03
2023-05-04T07:42:38.967Z,12.12
2023-05-04T07:43:38.989Z,12.17
2023-05-04T07:44:38.956Z,12.18
2023-05-04T07:45:41.951Z,12.22
2023-05-04T07:46:42.006Z,12.32
2023-05-04T07:47:38.968Z,12.39
2023-05-04T07:48:38.890Z,12.49
2023-05-04T07:49:38.877Z,12.39
2023-05-04T07:50:38.889Z,12.31
2023-05-04T07:51:38.854Z,12.35
2023-05-04T07:52:38.839Z,12.36
2023-05-04T07:53:38.877Z,12.43
2023-05-04T07:54:38.805Z,12.45
2023-05-04T07:55:38.820Z,12.55
2023-05-04T07:56:38.852Z,12.76
2023-05-04T07:57:38.764Z,12.97
2023-05-04T07:58:38.798Z,13.18
2023-05-04T07:59:38.753Z,13.20
2023-05-04T08:00:38.714Z,13.18
2023-05-04T08:01:38.722Z,13.04
2023-05-04T08:02:38.816Z,13.05
2023-05-04T08:03:38.683Z,13.12
2023-05-04T08:04:38.688Z,13.19
2023-05-04T08:05:41.659Z,13.28
2023-05-04T08:06:41.745Z,13.38
2023-05-04T08:07:38.627Z,13.39
2023-05-04T08:08:38.617Z,13.44
2023-05-04T08:09:38.637Z,13.42
2023-05-04T08:10:38.596Z,13.52
2023-05-04T08:11:38.590Z,13.42
2023-05-04T08:12:38.825Z,13.15
2023-05-04T08:13:38.551Z,13.04
2023-05-04T08:14:38.582Z,13.11
2023-05-04T08:15:38.571Z,13.03
2023-05-04T08:16:38.531Z,12.98
2023-05-04T08:17:38.538Z,13.09
2023-05-04T08:18:38.473Z,13.08
2023-05-04T08:19:38.458Z,13.09
2023-05-04T08:20:38.489Z,13.13
2023-05-04T08:21:38.468Z,13.27
2023-05-04T08:22:38.485Z,13.35
2023-05-04T08:23:38.409Z,13.50
2023-05-04T08:24:38.417Z,13.57
2023-05-04T08:25:41.400Z,13.67
2023-05-04T08:26:42.522Z,13.74
2023-05-04T08:27:38.364Z,13.70
2023-05-04T08:28:38.355Z,13.68
2023-05-04T08:29:38.343Z,13.75
2023-05-04T08:30:38.306Z,13.75
2023-05-04T08:31:38.500Z,13.72
2023-05-04T08:32:38.376Z,13.68
2023-05-04T08:33:38.281Z,13.67
2023-05-04T08:34:38.311Z,13.56
2023-05-04T08:35:38.284Z,13.54
2023-05-04T08:36:38.221Z,13.59
2023-05-04T08:37:38.319Z,13.67
2023-05-04T08:38:38.261Z,13.85
2023-05-04T08:39:41.279Z,14.05
2023-05-04T08:40:38.262Z,14.17
2023-05-04T08:41:38.172Z,14.26
2023-05-04T08:42:38.154Z,14.33
2023-05-04T08:43:38.133Z,14.33
2023-05-04T08:44:38.299Z,14.37
2023-05-04T08:45:41.196Z,14.28
2023-05-04T08:46:41.124Z,14.23
2023-05-04T08:47:38.118Z,14.26
2023-05-04T08:48:38.112Z,14.29
2023-05-04T08:49:38.057Z,14.33
2023-05-04T08:50:38.058Z,14.32
2023-05-04T08:51:38.053Z,14.32
2023-05-04T08:52:38.010Z,14.36
2023-05-04T08:53:38.014Z,14.37
2023-05-04T08:54:38.063Z,14.44
2023-05-04T08:55:37.970Z,14.43
2023-05-04T08:56:37.949Z,14.32
2023-05-04T08:57:37.946Z,14.29
2023-05-04T08:58:38.251Z,14.32
2023-05-04T08:59:37.915Z,14.25
2023-05-04T09:00:38.015Z,14.15
2023-05-04T09:01:38.008Z,14.20
2023-05-04T09:02:37.980Z,14.25
2023-05-04T09:03:37.941Z,14.33
2023-05-04T09:04:37.856Z,14.50
2023-05-04T09:05:40.900Z,14.60
2023-05-04T09:06:40.822Z,14.81
2023-05-04T09:07:37.818Z,14.96
2023-05-04T09:08:37.776Z,15.07
2023-05-04T09:09:37.771Z,15.27
2023-05-04T09:10:37.773Z,15.25
2023-05-04T09:11:37.803Z,15.22
2023-05-04T09:12:38.061Z,15.10
2023-05-04T09:13:37.741Z,14.97
2023-05-04T09:14:37.722Z,15.04
2023-05-04T09:15:37.690Z,15.07
2023-05-04T09:16:37.709Z,14.99
2023-05-04T09:17:44.582Z,14.94
2023-05-04T09:18:38.653Z,14.89
2023-05-04T09:19:37.638Z,14.88
2023-05-04T09:20:37.617Z,14.92
2023-05-04T09:21:37.608Z,15.04
2023-05-04T09:22:37.593Z,14.99
2023-05-04T09:23:37.739Z,14.96
2023-05-04T09:24:37.566Z,15.02
2023-05-04T09:25:40.545Z,15.03
2023-05-04T09:26:40.542Z,15.15
2023-05-04T09:27:37.521Z,15.25
2023-05-04T09:28:37.551Z,15.37
2023-05-04T09:29:37.488Z,15.46
2023-05-04T09:30:37.478Z,15.54
2023-05-04T09:31:37.495Z,15.62
2023-05-04T09:32:37.483Z,15.72
2023-05-04T09:33:37.485Z,15.79
2023-05-04T09:34:37.422Z,15.64
2023-05-04T09:35:37.419Z,15.46
2023-05-04T09:36:37.401Z,15.36
2023-05-04T09:37:37.386Z,15.28
2023-05-04T09:38:37.409Z,15.36
2023-05-04T09:39:37.367Z,15.51
2023-05-04T09:40:37.341Z,15.65
2023-05-04T09:41:37.327Z,15.80
2023-05-04T09:42:37.319Z,15.94
2023-05-04T09:43:37.311Z,16.09
2023-05-04T09:44:37.363Z,16.28
2023-05-04T09:45:40.283Z,16.33
2023-05-04T09:46:40.347Z,16.32
2023-05-04T09:47:37.317Z,16.42
2023-05-04T09:48:37.240Z,16.49
2023-05-04T09:49:37.222Z,16.57
2023-05-04T09:50:37.245Z,16.56
2023-05-04T09:51:37.199Z,16.49
2023-05-04T09:52:37.200Z,16.47
2023-05-04T09:53:37.174Z,16.51
2023-05-04T09:54:37.222Z,16.50
2023-05-04T09:55:37.145Z,16.68
2023-05-04T09:56:37.128Z,16.90
2023-05-04T09:57:37.121Z,17.09
2023-05-04T09:58:37.124Z,17.19
2023-05-04T09:59:37.107Z,17.31
2023-05-04T10:00:37.149Z,17.38
2023-05-04T10:01:37.074Z,17.41
2023-05-04T10:02:37.160Z,17.52
2023-05-04T10:03:37.040Z,17.60
2023-05-04T10:04:37.017Z,17.57
2023-05-04T10:05:40.101Z,17.52
2023-05-04T10:06:39.982Z,17.63
2023-05-04T10:07:36.966Z,17.56
2023-05-04T10:08:36.973Z,17.30
2023-05-04T10:09:36.947Z,17.15
2023-05-04T10:10:36.930Z,16.96
2023-05-04T10:11:36.938Z,16.86
2023-05-04T10:12:36.921Z,16.87
2023-05-04T10:13:36.885Z,16.93
2023-05-04T10:14:36.885Z,17.02
2023-05-04T10:15:36.851Z,17.05
2023-05-04T10:16:36.896Z,16.91
2023-05-04T10:17:36.852Z,16.76
2023-05-04T10:18:36.812Z,16.69
2023-05-04T10:19:36.797Z,16.81
2023-05-04T10:20:36.788Z,16.99
2023-05-04T10:21:36.833Z,17.06
2023-05-04T10:22:36.754Z,17.24
2023-05-04T10:23:36.735Z,17.31
2023-05-04T10:24:36.750Z,17.38
2023-05-04T10:25:39.716Z,17.11
2023-05-04T10:26:39.742Z,16.93
2023-05-04T10:27:36.682Z,16.51
2023-05-04T10:28:36.675Z,16.58
2023-05-04T10:29:36.657Z,16.84
2023-05-04T10:30:36.637Z,16.74
2023-05-04T10:31:36.756Z,16.75
2023-05-04T10:32:36.713Z,16.86
2023-05-04T10:33:36.587Z,16.86
2023-05-04T10:34:36.578Z,16.84
2023-05-04T10:35:36.605Z,17.02
2023-05-04T10:36:36.559Z,17.12
2023-05-04T10:37:36.529Z,17.20
2023-05-04T10:38:36.522Z,17.33
2023-05-04T10:39:36.526Z,17.26
2023-05-04T10:40:36.509Z,17.16
2023-05-04T10:41:36.498Z,17.12
2023-05-04T10:42:36.461Z,17.22
2023-05-04T10:43:36.497Z,17.20
2023-05-04T10:44:36.457Z,17.27
2023-05-04T10:45:39.529Z,17.36
2023-05-04T10:46:39.416Z,17.39
2023-05-04T10:47:36.409Z,17.39
2023-05-04T10:48:36.413Z,17.30
2023-05-04T10:49:36.397Z,17.22
2023-05-04T10:50:36.342Z,17.34
2023-05-04T10:51:48.739Z,17.60
2023-05-04T10:52:37.345Z,17.78
2023-05-04T10:53:36.307Z,17.90
2023-05-04T10:54:36.351Z,17.86
2023-05-04T10:55:36.291Z,17.74
2023-05-04T10:56:36.319Z,17.49
2023-05-04T10:57:36.316Z,17.34
2023-05-04T10:58:36.237Z,17.44
2023-05-04T10:59:36.877Z,17.36
2023-05-04T11:00:36.215Z,17.15
2023-05-04T11:01:36.252Z,17.22
2023-05-04T11:02:36.240Z,17.29
2023-05-04T11:03:36.305Z,17.33
2023-05-04T11:04:36.168Z,17.22
2023-05-04T11:05:39.147Z,17.29
2023-05-04T11:06:39.130Z,17.41
2023-05-04T11:07:36.107Z,17.48
2023-05-04T11:08:36.128Z,17.57
2023-05-04T11:09:36.103Z,17.76
2023-05-04T11:10:36.116Z,17.72
2023-05-04T11:11:36.056Z,17.79
2023-05-04T11:12:36.077Z,17.78
2023-05-04T11:13:36.095Z,17.82
2023-05-04T11:14:36.035Z,17.57
2023-05-04T11:15:35.996Z,17.52
2023-05-04T11:16:36.037Z,17.41
2023-05-04T11:17:36.020Z,17.29
2023-05-04T11:18:35.954Z,17.31
2023-05-04T11:19:35.977Z,17.16
2023-05-04T11:20:35.929Z,17.14
2023-05-04T11:21:35.952Z,17.12
2023-05-04T11:22:35.914Z,17.14
2023-05-04T11:23:35.933Z,17.19
2023-05-04T11:24:35.895Z,17.24
2023-05-04T11:25:38.860Z,17.33
2023-05-04T11:26:38.853Z,17.42
2023-05-04T11:27:35.827Z,17.51
2023-05-04T11:28:35.818Z,17.74
2023-05-04T11:29:35.980Z,17.89
2023-05-04T11:30:35.822Z,17.79
2023-05-04T11:31:35.827Z,17.80
2023-05-04T11:32:35.980Z,17.87
2023-05-04T11:33:35.772Z,18.10
2023-05-04T11:34:35.741Z,18.29
2023-05-04T11:35:35.725Z,18.50
2023-05-04T11:36:35.711Z,18.70
2023-05-04T11:37:35.747Z,18.77
2023-05-04T11:38:35.673Z,18.73
2023-05-04T11:39:35.653Z,18.38
2023-05-04T11:40:35.658Z,18.18
2023-05-04T11:41:35.625Z,18.05
2023-05-04T11:42:35.615Z,17.90
2023-05-04T11:43:35.624Z,17.83
2023-05-04T11:44:35.596Z,17.90
2023-05-04T11:45:38.583Z,17.94
2023-05-04T11:46:38.630Z,17.89
2023-05-04T11:47:35.641Z,17.82
2023-05-04T11:48:35.558Z,17.83
2023-05-04T11:49:35.550Z,17.76
2023-05-04T11:50:35.528Z,17.76
2023-05-04T11:51:35.489Z,17.86
2023-05-04T11:52:35.500Z,18.18
2023-05-04T11:53:35.521Z,18.41
2023-05-04T11:54:35.452Z,18.53
2023-05-04T11:55:35.441Z,18.45
2023-05-04T11:56:35.434Z,18.33
2023-05-04T11:57:35.398Z,18.15
2023-05-04T11:58:35.406Z,18.07
2023-05-04T11:59:35.408Z,18.10
2023-05-04T12:00:35.414Z,18.16
2023-05-04T12:01:35.387Z,18.35
2023-05-04T12:02:35.383Z,18.47
2023-05-04T12:03:52.447Z,18.52
2023-05-04T12:04:36.323Z,18.65
2023-05-04T12:05:38.437Z,18.80
2023-05-04T12:06:38.308Z,18.96
2023-05-04T12:07:35.264Z,18.99
2023-05-04T12:08:35.287Z,18.86
2023-05-04T12:09:35.253Z,18.66
2023-05-04T12:10:35.296Z,18.74
2023-05-04T12:11:35.265Z,18.84
2023-05-04T12:12:35.241Z,18.84
2023-05-04T12:13:35.202Z,18.75
2023-05-04T12:14:35.220Z,18.56
2023-05-04T12:15:35.162Z,18.43
2023-05-04T12:16:35.221Z,18.47
2023-05-04T12:17:35.224Z,18.31
2023-05-04T12:18:35.125Z,18.26
2023-05-04T12:19:35.107Z,18.35
2023-05-04T12:20:35.092Z,18.59
2023-05-04T12:21:35.094Z,18.78
2023-05-04T12:22:35.070Z,18.92
2023-05-04T12:23:35.108Z,18.89
2023-05-04T12:24:35.033Z,18.90
2023-05-04T12:25:47.414Z,18.78
2023-05-04T12:26:39.029Z,18.49
2023-05-04T12:27:35.124Z,18.03
2023-05-04T12:28:34.994Z,17.87
2023-05-04T12:29:35.008Z,17.94
2023-05-04T12:30:34.959Z,18.07
2023-05-04T12:31:34.950Z,18.22
2023-05-04T12:32:35.003Z,18.10
2023-05-04T12:33:34.951Z,18.01
2023-05-04T12:34:34.967Z,18.07
2023-05-04T12:35:34.888Z,18.20
2023-05-04T12:36:34.878Z,18.35
2023-05-04T12:37:34.900Z,18.47
2023-05-04T12:38:34.877Z,18.55
2023-05-04T12:39:34.840Z,18.56
2023-05-04T12:40:34.824Z,18.53
2023-05-04T12:41:34.817Z,18.73
2023-05-04T12:42:34.799Z,18.98
2023-05-04T12:43:34.861Z,19.22
2023-05-04T12:44:34.788Z,19.41
2023-05-04T12:45:37.740Z,19.41
2023-05-04T12:46:37.797Z,19.19
2023-05-04T12:47:34.771Z,18.93
2023-05-04T12:48:34.725Z,18.95
2023-05-04T12:49:34.712Z,18.88
2023-05-04T12:50:34.697Z,18.80
2023-05-04T12:51:34.670Z,18.89
2023-05-04T12:52:34.693Z,18.95
2023-05-04T12:53:34.663Z,19.14
2023-05-04T12:54:34.638Z,19.29
2023-05-04T12:55:34.652Z,19.18
2023-05-04T12:56:34.628Z,19.21
2023-05-04T12:57:34.578Z,18.93
2023-05-04T12:58:34.632Z,18.95
2023-05-04T12:59:34.553Z,19.07
2023-05-04T13:00:34.549Z,19.21
2023-05-04T13:01:34.573Z,19.33
2023-05-04T13:02:34.605Z,19.48
2023-05-04T13:03:34.613Z,19.52
2023-05-04T13:04:34.541Z,19.45
2023-05-04T13:05:37.474Z,19.47